sensor_id;sensor_type;location;lat;lon;timestamp;P1;durP1;ratioP1;P2;durP2;ratioP2
19543;SDS011;9917;51.256;7.152;2023-05-07T00:02:22;4.45;;;2.47;;
19543;SDS011;9917;51.256;7.152;2023-05-07T00:04:48;4.43;;;2.58;;
19543;SDS011;9917;51.256;7.152;2023-05-07T00:07:14;4.05;;;2.47;;
19543;SDS011;9917;51.256;7.152;2023-05-07T00:09:40;3.83;;;2.10;;
19543;SDS011;9917;51.256;7.152;2023-05-07T00:12:06;4.72;;;2.70;;
19543;SDS011;9917;51.256;7.152;2023-05-07T00:14:31;4.38;;;2.08;;
19543;SDS011;9917;51.256;7.152;2023-05-07T00:16:57;4.40;;;2.60;;
19543;SDS011;9917;51.256;7.152;2023-05-07T00:19:24;7.03;;;2.55;;
19543;SDS011;9917;51.256;7.152;2023-05-07T00:21:50;3.58;;;2.10;;
19543;SDS011;9917;51.256;7.152;2023-05-07T00:24:16;5.45;;;2.50;;
19543;SDS011;9917;51.256;7.152;2023-05-07T00:26:42;4.05;;;2.40;;
19543;SDS011;9917;51.256;7.152;2023-05-07T00:29:08;4.63;;;2.47;;
19543;SDS011;9917;51.256;7.152;2023-05-07T00:31:34;3.38;;;2.63;;
19543;SDS011;9917;51.256;7.152;2023-05-07T00:33:59;3.75;;;2.53;;
19543;SDS011;9917;51.256;7.152;2023-05-07T00:36:27;7.72;;;2.60;;
19543;SDS011;9917;51.256;7.152;2023-05-07T00:38:53;4.32;;;2.40;;
19543;SDS011;9917;51.256;7.152;2023-05-07T00:41:19;4.55;;;2.38;;
19543;SDS011;9917;51.256;7.152;2023-05-07T00:43:45;6.20;;;2.60;;
19543;SDS011;9917;51.256;7.152;2023-05-07T00:46:11;3.90;;;2.70;;
19543;SDS011;9917;51.256;7.152;2023-05-07T00:48:37;4.95;;;2.53;;
19543;SDS011;9917;51.256;7.152;2023-05-07T00:51:05;5.05;;;2.67;;
19543;SDS011;9917;51.256;7.152;2023-05-07T00:53:32;5.55;;;2.65;;
19543;SDS011;9917;51.256;7.152;2023-05-07T00:55:58;6.07;;;2.58;;
19543;SDS011;9917;51.256;7.152;2023-05-07T00:58:24;4.60;;;2.60;;
19543;SDS011;9917;51.256;7.152;2023-05-07T01:00:50;5.03;;;2.53;;
19543;SDS011;9917;51.256;7.152;2023-05-07T01:03:16;5.38;;;2.58;;
19543;SDS011;9917;51.256;7.152;2023-05-07T01:05:42;3.55;;;2.40;;
19543;SDS011;9917;51.256;7.152;2023-05-07T01:08:10;5.78;;;2.60;;
19543;SDS011;9917;51.256;7.152;2023-05-07T01:10:37;3.78;;;2.53;;
19543;SDS011;9917;51.256;7.152;2023-05-07T01:13:03;3.40;;;2.30;;
19543;SDS011;9917;51.256;7.152;2023-05-07T01:15:29;4.82;;;2.60;;
19543;SDS011;9917;51.256;7.152;2023-05-07T01:17:55;4.50;;;2.90;;
19543;SDS011;9917;51.256;7.152;2023-05-07T01:20:22;5.80;;;2.65;;
19543;SDS011;9917;51.256;7.152;2023-05-07T01:22:49;6.65;;;2.50;;
19543;SDS011;9917;51.256;7.152;2023-05-07T01:25:15;3.47;;;2.20;;
19543;SDS011;9917;51.256;7.152;2023-05-07T01:27:41;3.97;;;2.53;;
19543;SDS011;9917;51.256;7.152;2023-05-07T01:30:07;4.63;;;2.58;;
19543;SDS011;9917;51.256;7.152;2023-05-07T01:32:35;3.67;;;2.20;;
19543;SDS011;9917;51.256;7.152;2023-05-07T01:35:06;5.57;;;2.40;;
19543;SDS011;9917;51.256;7.152;2023-05-07T01:37:35;4.20;;;2.10;;
19543;SDS011;9917;51.256;7.152;2023-05-07T01:40:02;4.32;;;2.50;;
19543;SDS011;9917;51.256;7.152;2023-05-07T01:42:29;4.13;;;2.60;;
19543;SDS011;9917;51.256;7.152;2023-05-07T01:44:55;4.68;;;2.40;;
19543;SDS011;9917;51.256;7.152;2023-05-07T01:47:21;3.75;;;2.38;;
19543;SDS011;9917;51.256;7.152;2023-05-07T01:49:47;4.50;;;2.63;;
19543;SDS011;9917;51.256;7.152;2023-05-07T01:52:13;3.38;;;2.20;;
19543;SDS011;9917;51.256;7.152;2023-05-07T01:54:39;6.70;;;2.78;;
19543;SDS011;9917;51.256;7.152;2023-05-07T01:57:06;2.90;;;2.10;;
19543;SDS011;9917;51.256;7.152;2023-05-07T01:59:32;4.15;;;2.10;;
19543;SDS011;9917;51.256;7.152;2023-05-07T02:01:57;3.13;;;2.13;;
19543;SDS011;9917;51.256;7.152;2023-05-07T02:04:23;3.40;;;2.25;;
19543;SDS011;9917;51.256;7.152;2023-05-07T02:06:49;4.40;;;2.10;;
19543;SDS011;9917;51.256;7.152;2023-05-07T02:09:15;2.65;;;1.92;;
19543;SDS011;9917;51.256;7.152;2023-05-07T02:11:41;3.03;;;2.15;;
19543;SDS011;9917;51.256;7.152;2023-05-07T02:14:08;3.92;;;2.22;;
19543;SDS011;9917;51.256;7.152;2023-05-07T02:16:34;3.80;;;2.15;;
19543;SDS011;9917;51.256;7.152;2023-05-07T02:18:59;6.13;;;2.72;;
19543;SDS011;9917;51.256;7.152;2023-05-07T02:21:25;4.80;;;2.70;;
19543;SDS011;9917;51.256;7.152;2023-05-07T02:23:51;3.22;;;2.50;;
19543;SDS011;9917;51.256;7.152;2023-05-07T02:26:17;6.15;;;2.35;;
19543;SDS011;9917;51.256;7.152;2023-05-07T02:28:43;4.13;;;2.00;;
19543;SDS011;9917;51.256;7.152;2023-05-07T02:31:10;4.28;;;2.40;;
19543;SDS011;9917;51.256;7.152;2023-05-07T02:33:36;4.00;;;2.22;;
19543;SDS011;9917;51.256;7.152;2023-05-07T02:36:05;3.47;;;2.20;;
19543;SDS011;9917;51.256;7.152;2023-05-07T02:38:32;3.88;;;2.20;;
19543;SDS011;9917;51.256;7.152;2023-05-07T02:40:58;2.92;;;1.98;;
19543;SDS011;9917;51.256;7.152;2023-05-07T02:43:23;3.22;;;2.00;;
19543;SDS011;9917;51.256;7.152;2023-05-07T02:45:49;3.38;;;1.90;;
19543;SDS011;9917;51.256;7.152;2023-05-07T02:48:27;2.97;;;1.67;;
19543;SDS011;9917;51.256;7.152;2023-05-07T02:50:53;3.53;;;2.00;;
19543;SDS011;9917;51.256;7.152;2023-05-07T02:53:19;4.45;;;1.95;;
19543;SDS011;9917;51.256;7.152;2023-05-07T02:55:45;3.67;;;2.13;;
19543;SDS011;9917;51.256;7.152;2023-05-07T02:58:10;3.47;;;1.83;;
19543;SDS011;9917;51.256;7.152;2023-05-07T03:00:36;4.63;;;2.00;;
19543;SDS011;9917;51.256;7.152;2023-05-07T03:03:02;4.82;;;1.92;;
19543;SDS011;9917;51.256;7.152;2023-05-07T03:05:29;2.78;;;1.90;;
19543;SDS011;9917;51.256;7.152;2023-05-07T03:07:55;3.03;;;2.17;;
19543;SDS011;9917;51.256;7.152;2023-05-07T03:10:21;3.50;;;1.90;;
19543;SDS011;9917;51.256;7.152;2023-05-07T03:12:47;2.60;;;2.17;;
19543;SDS011;9917;51.256;7.152;2023-05-07T03:15:13;4.13;;;2.20;;
19543;SDS011;9917;51.256;7.152;2023-05-07T03:17:38;4.03;;;1.80;;
19543;SDS011;9917;51.256;7.152;2023-05-07T03:20:05;3.83;;;2.00;;
19543;SDS011;9917;51.256;7.152;2023-05-07T03:22:36;4.03;;;2.28;;
19543;SDS011;9917;51.256;7.152;2023-05-07T03:25:02;2.65;;;2.08;;
19543;SDS011;9917;51.256;7.152;2023-05-07T03:27:28;2.85;;;1.95;;
19543;SDS011;9917;51.256;7.152;2023-05-07T03:29:53;3.55;;;2.10;;
19543;SDS011;9917;51.256;7.152;2023-05-07T03:32:19;4.13;;;2.20;;
19543;SDS011;9917;51.256;7.152;2023-05-07T03:34:47;4.03;;;2.08;;
19543;SDS011;9917;51.256;7.152;2023-05-07T03:37:15;2.75;;;2.00;;
19543;SDS011;9917;51.256;7.152;2023-05-07T03:39:42;3.10;;;1.90;;
19543;SDS011;9917;51.256;7.152;2023-05-07T03:42:08;2.75;;;2.15;;
19543;SDS011;9917;51.256;7.152;2023-05-07T03:44:34;4.53;;;2.05;;
19543;SDS011;9917;51.256;7.152;2023-05-07T03:47:05;5.57;;;2.00;;
19543;SDS011;9917;51.256;7.152;2023-05-07T03:49:36;2.50;;;1.80;;
19543;SDS011;9917;51.256;7.152;2023-05-07T03:52:02;3.25;;;1.90;;
19543;SDS011;9917;51.256;7.152;2023-05-07T03:54:29;4.78;;;1.90;;
19543;SDS011;9917;51.256;7.152;2023-05-07T03:56:57;3.35;;;1.88;;
19543;SDS011;9917;51.256;7.152;2023-05-07T03:59:22;4.28;;;2.20;;
19543;SDS011;9917;51.256;7.152;2023-05-07T04:01:48;3.67;;;2.15;;
19543;SDS011;9917;51.256;7.152;2023-05-07T04:04:14;5.68;;;1.75;;
19543;SDS011;9917;51.256;7.152;2023-05-07T04:06:40;2.83;;;1.95;;
19543;SDS011;9917;51.256;7.152;2023-05-07T04:09:06;3.35;;;1.80;;
19543;SDS011;9917;51.256;7.152;2023-05-07T04:11:31;3.28;;;2.00;;
19543;SDS011;9917;51.256;7.152;2023-05-07T04:13:59;6.47;;;1.90;;
19543;SDS011;9917;51.256;7.152;2023-05-07T04:16:25;2.90;;;2.05;;
19543;SDS011;9917;51.256;7.152;2023-05-07T04:18:51;2.88;;;2.03;;
19543;SDS011;9917;51.256;7.152;2023-05-07T04:21:16;3.75;;;1.67;;
19543;SDS011;9917;51.256;7.152;2023-05-07T04:23:43;5.03;;;2.38;;
19543;SDS011;9917;51.256;7.152;2023-05-07T04:26:09;3.17;;;1.98;;
19543;SDS011;9917;51.256;7.152;2023-05-07T04:28:35;3.17;;;1.77;;
19543;SDS011;9917;51.256;7.152;2023-05-07T04:31:02;6.10;;;1.80;;
19543;SDS011;9917;51.256;7.152;2023-05-07T04:33:28;2.45;;;1.60;;
19543;SDS011;9917;51.256;7.152;2023-05-07T04:35:53;3.17;;;2.10;;
19543;SDS011;9917;51.256;7.152;2023-05-07T04:38:19;4.53;;;2.00;;
19543;SDS011;9917;51.256;7.152;2023-05-07T04:40:45;2.67;;;1.67;;
19543;SDS011;9917;51.256;7.152;2023-05-07T04:43:11;5.32;;;1.80;;
19543;SDS011;9917;51.256;7.152;2023-05-07T04:45:36;4.60;;;2.30;;
19543;SDS011;9917;51.256;7.152;2023-05-07T04:48:06;4.72;;;1.83;;
19543;SDS011;9917;51.256;7.152;2023-05-07T04:50:31;3.13;;;1.73;;
19543;SDS011;9917;51.256;7.152;2023-05-07T04:52:57;2.83;;;1.70;;
19543;SDS011;9917;51.256;7.152;2023-05-07T04:55:23;2.60;;;1.80;;
19543;SDS011;9917;51.256;7.152;2023-05-07T04:57:52;3.65;;;1.95;;
19543;SDS011;9917;51.256;7.152;2023-05-07T05:00:18;5.05;;;2.03;;
19543;SDS011;9917;51.256;7.152;2023-05-07T05:02:44;3.17;;;1.60;;
19543;SDS011;9917;51.256;7.152;2023-05-07T05:05:11;2.72;;;1.85;;
19543;SDS011;9917;51.256;7.152;2023-05-07T05:07:37;2.42;;;1.90;;
19543;SDS011;9917;51.256;7.152;2023-05-07T05:10:03;2.97;;;2.08;;
19543;SDS011;9917;51.256;7.152;2023-05-07T05:12:30;3.30;;;1.70;;
19543;SDS011;9917;51.256;7.152;2023-05-07T05:14:55;4.00;;;2.17;;
19543;SDS011;9917;51.256;7.152;2023-05-07T05:17:21;2.72;;;1.95;;
19543;SDS011;9917;51.256;7.152;2023-05-07T05:19:53;3.65;;;2.03;;
19543;SDS011;9917;51.256;7.152;2023-05-07T05:22:20;3.22;;;2.00;;
19543;SDS011;9917;51.256;7.152;2023-05-07T05:24:46;3.30;;;2.42;;
19543;SDS011;9917;51.256;7.152;2023-05-07T05:27:11;3.08;;;2.35;;
19543;SDS011;9917;51.256;7.152;2023-05-07T05:29:37;4.78;;;2.08;;
19543;SDS011;9917;51.256;7.152;2023-05-07T05:32:03;3.78;;;1.80;;
19543;SDS011;9917;51.256;7.152;2023-05-07T05:34:30;2.85;;;1.92;;
19543;SDS011;9917;51.256;7.152;2023-05-07T05:36:56;3.45;;;1.98;;
19543;SDS011;9917;51.256;7.152;2023-05-07T05:39:23;4.05;;;1.98;;
19543;SDS011;9917;51.256;7.152;2023-05-07T05:41:49;3.03;;;2.17;;
19543;SDS011;9917;51.256;7.152;2023-05-07T05:44:14;4.43;;;1.88;;
19543;SDS011;9917;51.256;7.152;2023-05-07T05:46:40;2.28;;;1.80;;
19543;SDS011;9917;51.256;7.152;2023-05-07T05:49:06;5.15;;;1.80;;
19543;SDS011;9917;51.256;7.152;2023-05-07T05:51:32;3.88;;;1.90;;
19543;SDS011;9917;51.256;7.152;2023-05-07T05:53:58;2.10;;;1.70;;
19543;SDS011;9917;51.256;7.152;2023-05-07T05:56:25;2.35;;;1.63;;
19543;SDS011;9917;51.256;7.152;2023-05-07T05:58:50;2.38;;;1.63;;
19543;SDS011;9917;51.256;7.152;2023-05-07T06:01:17;2.88;;;1.67;;
19543;SDS011;9917;51.256;7.152;2023-05-07T06:03:43;4.85;;;1.65;;
19543;SDS011;9917;51.256;7.152;2023-05-07T06:06:09;5.18;;;1.75;;
19543;SDS011;9917;51.256;7.152;2023-05-07T06:08:35;2.85;;;1.88;;
19543;SDS011;9917;51.256;7.152;2023-05-07T06:11:01;3.15;;;2.10;;
19543;SDS011;9917;51.256;7.152;2023-05-07T06:13:29;3.30;;;1.85;;
19543;SDS011;9917;51.256;7.152;2023-05-07T06:15:54;3.22;;;1.50;;
19543;SDS011;9917;51.256;7.152;2023-05-07T06:18:20;3.13;;;1.50;;
19543;SDS011;9917;51.256;7.152;2023-05-07T06:20:46;3.47;;;2.05;;
19543;SDS011;9917;51.256;7.152;2023-05-07T06:23:14;2.72;;;1.52;;
19543;SDS011;9917;51.256;7.152;2023-05-07T06:25:39;2.58;;;1.38;;
19543;SDS011;9917;51.256;7.152;2023-05-07T06:28:05;5.35;;;1.55;;
19543;SDS011;9917;51.256;7.152;2023-05-07T06:30:32;2.55;;;1.60;;
19543;SDS011;9917;51.256;7.152;2023-05-07T06:32:59;3.28;;;1.40;;
19543;SDS011;9917;51.256;7.152;2023-05-07T06:35:25;3.30;;;1.17;;
19543;SDS011;9917;51.256;7.152;2023-05-07T06:37:51;3.63;;;1.40;;
19543;SDS011;9917;51.256;7.152;2023-05-07T06:40:17;2.75;;;1.48;;
19543;SDS011;9917;51.256;7.152;2023-05-07T06:42:43;2.95;;;1.52;;
19543;SDS011;9917;51.256;7.152;2023-05-07T06:45:09;3.50;;;1.60;;
19543;SDS011;9917;51.256;7.152;2023-05-07T06:47:36;3.08;;;1.50;;
19543;SDS011;9917;51.256;7.152;2023-05-07T06:50:02;2.03;;;1.33;;
19543;SDS011;9917;51.256;7.152;2023-05-07T06:52:28;2.85;;;1.15;;
19543;SDS011;9917;51.256;7.152;2023-05-07T06:55:09;2.20;;;1.10;;
19543;SDS011;9917;51.256;7.152;2023-05-07T06:57:35;1.92;;;1.30;;
19543;SDS011;9917;51.256;7.152;2023-05-07T07:00:01;2.67;;;1.35;;
19543;SDS011;9917;51.256;7.152;2023-05-07T07:02:41;2.83;;;1.50;;
19543;SDS011;9917;51.256;7.152;2023-05-07T07:05:07;1.92;;;1.23;;
19543;SDS011;9917;51.256;7.152;2023-05-07T07:07:33;2.38;;;1.40;;
19543;SDS011;9917;51.256;7.152;2023-05-07T07:10:08;1.90;;;1.02;;
19543;SDS011;9917;51.256;7.152;2023-05-07T07:12:37;2.53;;;1.20;;
19543;SDS011;9917;51.256;7.152;2023-05-07T07:15:06;1.85;;;1.25;;
19543;SDS011;9917;51.256;7.152;2023-05-07T07:17:32;2.75;;;1.38;;
19543;SDS011;9917;51.256;7.152;2023-05-07T07:19:59;5.80;;;2.15;;
19543;SDS011;9917;51.256;7.152;2023-05-07T07:22:28;4.05;;;1.95;;
19543;SDS011;9917;51.256;7.152;2023-05-07T07:24:57;2.95;;;1.60;;
19543;SDS011;9917;51.256;7.152;2023-05-07T07:27:23;7.72;;;2.28;;
19543;SDS011;9917;51.256;7.152;2023-05-07T07:29:49;2.33;;;1.02;;
19543;SDS011;9917;51.256;7.152;2023-05-07T07:32:15;6.03;;;1.83;;
19543;SDS011;9917;51.256;7.152;2023-05-07T07:34:40;1.45;;;0.82;;
19543;SDS011;9917;51.256;7.152;2023-05-07T07:37:08;3.15;;;1.20;;
19543;SDS011;9917;51.256;7.152;2023-05-07T07:39:33;1.92;;;1.00;;
19543;SDS011;9917;51.256;7.152;2023-05-07T07:42:08;2.45;;;1.10;;
19543;SDS011;9917;51.256;7.152;2023-05-07T07:44:34;1.58;;;0.80;;
19543;SDS011;9917;51.256;7.152;2023-05-07T07:46:59;1.52;;;1.27;;
19543;SDS011;9917;51.256;7.152;2023-05-07T07:49:25;2.25;;;1.23;;
19543;SDS011;9917;51.256;7.152;2023-05-07T07:51:51;1.63;;;0.95;;
19543;SDS011;9917;51.256;7.152;2023-05-07T07:54:21;2.42;;;1.00;;
19543;SDS011;9917;51.256;7.152;2023-05-07T07:56:47;3.47;;;1.88;;
19543;SDS011;9917;51.256;7.152;2023-05-07T07:59:16;2.40;;;1.20;;
19543;SDS011;9917;51.256;7.152;2023-05-07T08:01:42;1.35;;;0.80;;
19543;SDS011;9917;51.256;7.152;2023-05-07T08:04:08;5.10;;;1.30;;
19543;SDS011;9917;51.256;7.152;2023-05-07T08:06:33;3.13;;;1.00;;
19543;SDS011;9917;51.256;7.152;2023-05-07T08:08:59;1.65;;;0.85;;
19543;SDS011;9917;51.256;7.152;2023-05-07T08:11:26;1.98;;;0.70;;
19543;SDS011;9917;51.256;7.152;2023-05-07T08:13:58;1.42;;;0.70;;
19543;SDS011;9917;51.256;7.152;2023-05-07T08:16:24;3.30;;;1.10;;
19543;SDS011;9917;51.256;7.152;2023-05-07T08:18:50;3.08;;;0.98;;
19543;SDS011;9917;51.256;7.152;2023-05-07T08:21:19;2.28;;;1.10;;
19543;SDS011;9917;51.256;7.152;2023-05-07T08:23:45;1.60;;;0.90;;
19543;SDS011;9917;51.256;7.152;2023-05-07T08:26:13;2.10;;;0.93;;
19543;SDS011;9917;51.256;7.152;2023-05-07T08:28:47;1.63;;;0.90;;
19543;SDS011;9917;51.256;7.152;2023-05-07T08:31:23;3.47;;;0.80;;
19543;SDS011;9917;51.256;7.152;2023-05-07T08:33:55;1.88;;;0.70;;
19543;SDS011;9917;51.256;7.152;2023-05-07T08:36:21;2.67;;;0.90;;
19543;SDS011;9917;51.256;7.152;2023-05-07T08:38:46;2.03;;;1.00;;
19543;SDS011;9917;51.256;7.152;2023-05-07T08:41:12;2.35;;;0.75;;
19543;SDS011;9917;51.256;7.152;2023-05-07T08:43:38;1.77;;;0.85;;
19543;SDS011;9917;51.256;7.152;2023-05-07T08:46:08;2.78;;;1.40;;
19543;SDS011;9917;51.256;7.152;2023-05-07T08:48:34;0.98;;;0.63;;
19543;SDS011;9917;51.256;7.152;2023-05-07T08:51:00;2.65;;;0.70;;
19543;SDS011;9917;51.256;7.152;2023-05-07T08:53:26;1.60;;;0.60;;
19543;SDS011;9917;51.256;7.152;2023-05-07T08:55:52;2.45;;;0.73;;
19543;SDS011;9917;51.256;7.152;2023-05-07T08:58:18;2.97;;;0.40;;
19543;SDS011;9917;51.256;7.152;2023-05-07T09:00:44;1.85;;;0.30;;
19543;SDS011;9917;51.256;7.152;2023-05-07T09:03:13;1.95;;;0.70;;
19543;SDS011;9917;51.256;7.152;2023-05-07T09:05:39;1.45;;;0.60;;
19543;SDS011;9917;51.256;7.152;2023-05-07T09:17:30;2.60;;;0.60;;
19543;SDS011;9917;51.256;7.152;2023-05-07T09:19:57;1.35;;;0.40;;
19543;SDS011;9917;51.256;7.152;2023-05-07T09:22:27;0.98;;;0.57;;
19543;SDS011;9917;51.256;7.152;2023-05-07T09:24:56;1.63;;;0.65;;
19543;SDS011;9917;51.256;7.152;2023-05-07T09:30:29;2.47;;;0.65;;
19543;SDS011;9917;51.256;7.152;2023-05-07T09:32:56;4.32;;;0.80;;
19543;SDS011;9917;51.256;7.152;2023-05-07T09:35:24;2.22;;;0.60;;
19543;SDS011;9917;51.256;7.152;2023-05-07T09:37:50;4.22;;;0.68;;
19543;SDS011;9917;51.256;7.152;2023-05-07T09:40:20;2.78;;;0.60;;
19543;SDS011;9917;51.256;7.152;2023-05-07T09:42:47;2.88;;;0.70;;
19543;SDS011;9917;51.256;7.152;2023-05-07T09:45:13;1.70;;;0.55;;
19543;SDS011;9917;51.256;7.152;2023-05-07T09:47:39;2.78;;;0.63;;
19543;SDS011;9917;51.256;7.152;2023-05-07T09:50:08;2.72;;;0.43;;
19543;SDS011;9917;51.256;7.152;2023-05-07T09:52:36;4.70;;;0.73;;
19543;SDS011;9917;51.256;7.152;2023-05-07T09:55:03;1.70;;;0.50;;
19543;SDS011;9917;51.256;7.152;2023-05-07T09:57:30;1.95;;;0.50;;
19543;SDS011;9917;51.256;7.152;2023-05-07T09:59:57;1.08;;;0.60;;
19543;SDS011;9917;51.256;7.152;2023-05-07T10:02:25;1.02;;;0.50;;
19543;SDS011;9917;51.256;7.152;2023-05-07T10:04:55;1.60;;;0.50;;
19543;SDS011;9917;51.256;7.152;2023-05-07T10:07:27;1.70;;;0.50;;
19543;SDS011;9917;51.256;7.152;2023-05-07T10:09:55;2.50;;;0.75;;
19543;SDS011;9917;51.256;7.152;2023-05-07T10:12:24;1.13;;;0.52;;
19543;SDS011;9917;51.256;7.152;2023-05-07T10:14:50;1.90;;;0.57;;
19543;SDS011;9917;51.256;7.152;2023-05-07T10:17:20;1.75;;;0.47;;
19543;SDS011;9917;51.256;7.152;2023-05-07T10:19:47;1.60;;;0.50;;
19543;SDS011;9917;51.256;7.152;2023-05-07T10:22:14;2.15;;;0.65;;
19543;SDS011;9917;51.256;7.152;2023-05-07T10:24:42;1.58;;;0.40;;
19543;SDS011;9917;51.256;7.152;2023-05-07T10:27:14;0.90;;;0.47;;
19543;SDS011;9917;51.256;7.152;2023-05-07T10:29:44;1.17;;;0.50;;
19543;SDS011;9917;51.256;7.152;2023-05-07T10:32:27;2.75;;;0.70;;
19543;SDS011;9917;51.256;7.152;2023-05-07T10:35:04;1.55;;;0.60;;
19543;SDS011;9917;51.256;7.152;2023-05-07T10:37:41;0.98;;;0.25;;
19543;SDS011;9917;51.256;7.152;2023-05-07T10:40:11;1.65;;;0.40;;
19543;SDS011;9917;51.256;7.152;2023-05-07T10:42:40;1.02;;;0.50;;
19543;SDS011;9917;51.256;7.152;2023-05-07T10:45:26;3.00;;;0.50;;
19543;SDS011;9917;51.256;7.152;2023-05-07T10:48:05;1.15;;;0.30;;
19543;SDS011;9917;51.256;7.152;2023-05-07T10:50:32;3.80;;;0.43;;
19543;SDS011;9917;51.256;7.152;2023-05-07T10:55:49;0.95;;;0.50;;
19543;SDS011;9917;51.256;7.152;2023-05-07T10:58:37;1.95;;;0.85;;
19543;SDS011;9917;51.256;7.152;2023-05-07T11:01:03;2.50;;;0.40;;
19543;SDS011;9917;51.256;7.152;2023-05-07T11:03:29;2.22;;;0.63;;
19543;SDS011;9917;51.256;7.152;2023-05-07T11:06:11;1.02;;;0.40;;
19543;SDS011;9917;51.256;7.152;2023-05-07T11:08:53;1.27;;;0.45;;
19543;SDS011;9917;51.256;7.152;2023-05-07T11:11:20;1.08;;;0.32;;
19543;SDS011;9917;51.256;7.152;2023-05-07T11:14:10;1.13;;;0.45;;
19543;SDS011;9917;51.256;7.152;2023-05-07T11:16:36;1.23;;;0.70;;
19543;SDS011;9917;51.256;7.152;2023-05-07T11:19:05;1.40;;;0.47;;
19543;SDS011;9917;51.256;7.152;2023-05-07T11:21:33;2.22;;;0.60;;
19543;SDS011;9917;51.256;7.152;2023-05-07T11:24:00;2.35;;;0.77;;
19543;SDS011;9917;51.256;7.152;2023-05-07T11:26:27;1.15;;;0.55;;
19543;SDS011;9917;51.256;7.152;2023-05-07T11:28:54;1.77;;;0.90;;
19543;SDS011;9917;51.256;7.152;2023-05-07T11:31:23;2.25;;;1.05;;
19543;SDS011;9917;51.256;7.152;2023-05-07T11:33:50;3.90;;;1.35;;
19543;SDS011;9917;51.256;7.152;2023-05-07T11:36:16;3.22;;;0.90;;
19543;SDS011;9917;51.256;7.152;2023-05-07T11:38:43;3.10;;;1.08;;
19543;SDS011;9917;51.256;7.152;2023-05-07T11:41:09;3.20;;;0.90;;
19543;SDS011;9917;51.256;7.152;2023-05-07T11:43:35;2.80;;;0.80;;
19543;SDS011;9917;51.256;7.152;2023-05-07T11:46:05;5.65;;;1.15;;
19543;SDS011;9917;51.256;7.152;2023-05-07T11:48:32;1.90;;;0.90;;
19543;SDS011;9917;51.256;7.152;2023-05-07T11:51:00;2.03;;;0.95;;
19543;SDS011;9917;51.256;7.152;2023-05-07T11:53:35;1.33;;;0.75;;
19543;SDS011;9917;51.256;7.152;2023-05-07T11:56:05;3.00;;;1.00;;
19543;SDS011;9917;51.256;7.152;2023-05-07T11:58:31;4.13;;;1.33;;
19543;SDS011;9917;51.256;7.152;2023-05-07T12:00:57;4.50;;;1.20;;
19543;SDS011;9917;51.256;7.152;2023-05-07T12:03:23;4.15;;;1.02;;
19543;SDS011;9917;51.256;7.152;2023-05-07T12:05:51;4.15;;;1.17;;
19543;SDS011;9917;51.256;7.152;2023-05-07T12:08:16;4.68;;;1.23;;
19543;SDS011;9917;51.256;7.152;2023-05-07T12:10:44;2.97;;;1.17;;
19543;SDS011;9917;51.256;7.152;2023-05-07T12:13:14;2.05;;;1.38;;
19543;SDS011;9917;51.256;7.152;2023-05-07T12:15:40;4.80;;;1.23;;
19543;SDS011;9917;51.256;7.152;2023-05-07T12:18:06;1.55;;;0.90;;
19543;SDS011;9917;51.256;7.152;2023-05-07T12:20:32;1.50;;;0.98;;
19543;SDS011;9917;51.256;7.152;2023-05-07T12:23:00;2.05;;;0.80;;
19543;SDS011;9917;51.256;7.152;2023-05-07T12:25:26;1.60;;;0.80;;
19543;SDS011;9917;51.256;7.152;2023-05-07T12:27:54;2.05;;;1.25;;
19543;SDS011;9917;51.256;7.152;2023-05-07T12:30:20;1.90;;;1.38;;
19543;SDS011;9917;51.256;7.152;2023-05-07T12:32:46;3.47;;;1.42;;
19543;SDS011;9917;51.256;7.152;2023-05-07T12:35:12;3.17;;;1.55;;
19543;SDS011;9917;51.256;7.152;2023-05-07T12:37:38;4.30;;;1.60;;
19543;SDS011;9917;51.256;7.152;2023-05-07T12:40:05;2.65;;;1.48;;
19543;SDS011;9917;51.256;7.152;2023-05-07T12:42:32;3.97;;;2.33;;
19543;SDS011;9917;51.256;7.152;2023-05-07T12:45:00;3.22;;;2.08;;
19543;SDS011;9917;51.256;7.152;2023-05-07T12:47:32;4.85;;;1.83;;
19543;SDS011;9917;51.256;7.152;2023-05-07T12:49:58;4.03;;;1.88;;
19543;SDS011;9917;51.256;7.152;2023-05-07T12:52:24;3.72;;;1.75;;
19543;SDS011;9917;51.256;7.152;2023-05-07T12:54:50;4.50;;;1.95;;
19543;SDS011;9917;51.256;7.152;2023-05-07T12:57:18;3.00;;;2.25;;
19543;SDS011;9917;51.256;7.152;2023-05-07T12:59:44;5.53;;;2.60;;
19543;SDS011;9917;51.256;7.152;2023-05-07T13:02:10;4.78;;;2.55;;
19543;SDS011;9917;51.256;7.152;2023-05-07T13:04:36;5.10;;;2.80;;
19543;SDS011;9917;51.256;7.152;2023-05-07T13:07:02;4.65;;;2.40;;
19543;SDS011;9917;51.256;7.152;2023-05-07T13:09:28;3.85;;;2.97;;
19543;SDS011;9917;51.256;7.152;2023-05-07T13:11:53;5.07;;;2.55;;
19543;SDS011;9917;51.256;7.152;2023-05-07T13:14:20;3.47;;;2.10;;
19543;SDS011;9917;51.256;7.152;2023-05-07T13:16:46;4.15;;;2.20;;
19543;SDS011;9917;51.256;7.152;2023-05-07T13:19:12;4.65;;;2.33;;
19543;SDS011;9917;51.256;7.152;2023-05-07T13:21:38;4.00;;;2.28;;
19543;SDS011;9917;51.256;7.152;2023-05-07T13:24:04;3.90;;;2.08;;
19543;SDS011;9917;51.256;7.152;2023-05-07T13:26:30;4.55;;;2.15;;
19543;SDS011;9917;51.256;7.152;2023-05-07T13:28:56;3.63;;;1.80;;
19543;SDS011;9917;51.256;7.152;2023-05-07T13:31:23;5.35;;;1.60;;
19543;SDS011;9917;51.256;7.152;2023-05-07T13:33:49;2.75;;;1.20;;
19543;SDS011;9917;51.256;7.152;2023-05-07T13:36:15;3.85;;;1.55;;
19543;SDS011;9917;51.256;7.152;2023-05-07T13:38:41;4.07;;;1.20;;
19543;SDS011;9917;51.256;7.152;2023-05-07T13:41:07;2.70;;;1.15;;
19543;SDS011;9917;51.256;7.152;2023-05-07T13:43:33;2.80;;;1.25;;
19543;SDS011;9917;51.256;7.152;2023-05-07T13:45:59;3.15;;;1.08;;
19543;SDS011;9917;51.256;7.152;2023-05-07T13:48:26;1.70;;;0.90;;
19543;SDS011;9917;51.256;7.152;2023-05-07T13:50:52;2.70;;;1.08;;
19543;SDS011;9917;51.256;7.152;2023-05-07T13:53:18;2.13;;;1.13;;
19543;SDS011;9917;51.256;7.152;2023-05-07T13:55:44;3.22;;;1.20;;
19543;SDS011;9917;51.256;7.152;2023-05-07T13:58:10;1.90;;;1.10;;
19543;SDS011;9917;51.256;7.152;2023-05-07T14:00:35;6.45;;;1.58;;
19543;SDS011;9917;51.256;7.152;2023-05-07T14:03:02;3.00;;;1.38;;
19543;SDS011;9917;51.256;7.152;2023-05-07T14:05:30;3.20;;;1.60;;
19543;SDS011;9917;51.256;7.152;2023-05-07T14:07:56;3.50;;;1.90;;
19543;SDS011;9917;51.256;7.152;2023-05-07T14:10:43;2.67;;;1.40;;
19543;SDS011;9917;51.256;7.152;2023-05-07T14:13:21;2.85;;;1.58;;
19543;SDS011;9917;51.256;7.152;2023-05-07T14:15:47;2.67;;;1.73;;
19543;SDS011;9917;51.256;7.152;2023-05-07T14:18:12;4.28;;;2.20;;
19543;SDS011;9917;51.256;7.152;2023-05-07T14:20:40;3.97;;;2.20;;
19543;SDS011;9917;51.256;7.152;2023-05-07T14:23:09;3.97;;;2.60;;
19543;SDS011;9917;51.256;7.152;2023-05-07T14:25:35;4.40;;;2.80;;
19543;SDS011;9917;51.256;7.152;2023-05-07T14:28:01;7.30;;;3.72;;
19543;SDS011;9917;51.256;7.152;2023-05-07T14:30:27;8.95;;;4.22;;
19543;SDS011;9917;51.256;7.152;2023-05-07T14:32:53;7.55;;;5.32;;
19543;SDS011;9917;51.256;7.152;2023-05-07T14:35:19;8.77;;;5.93;;
19543;SDS011;9917;51.256;7.152;2023-05-07T14:37:46;8.07;;;5.20;;
19543;SDS011;9917;51.256;7.152;2023-05-07T14:40:12;8.80;;;5.13;;
19543;SDS011;9917;51.256;7.152;2023-05-07T14:42:38;9.70;;;5.22;;
19543;SDS011;9917;51.256;7.152;2023-05-07T14:45:04;8.27;;;5.50;;
19543;SDS011;9917;51.256;7.152;2023-05-07T14:47:31;8.02;;;5.20;;
19543;SDS011;9917;51.256;7.152;2023-05-07T14:49:59;7.90;;;4.55;;
19543;SDS011;9917;51.256;7.152;2023-05-07T14:52:24;8.07;;;5.00;;
19543;SDS011;9917;51.256;7.152;2023-05-07T14:54:51;7.45;;;5.15;;
19543;SDS011;9917;51.256;7.152;2023-05-07T14:57:17;6.88;;;5.10;;
19543;SDS011;9917;51.256;7.152;2023-05-07T14:59:43;7.80;;;4.65;;
19543;SDS011;9917;51.256;7.152;2023-05-07T15:02:09;7.80;;;4.50;;
19543;SDS011;9917;51.256;7.152;2023-05-07T15:04:36;5.80;;;4.57;;
19543;SDS011;9917;51.256;7.152;2023-05-07T15:07:01;7.50;;;4.93;;
19543;SDS011;9917;51.256;7.152;2023-05-07T15:09:28;8.70;;;4.50;;
19543;SDS011;9917;51.256;7.152;2023-05-07T15:11:56;6.93;;;4.70;;
19543;SDS011;9917;51.256;7.152;2023-05-07T15:14:21;7.25;;;4.28;;
19543;SDS011;9917;51.256;7.152;2023-05-07T15:16:47;5.13;;;3.80;;